sensor_id;sensor_type;location;lat;lon;timestamp;P1;durP1;ratioP1;P2;durP2;ratioP2
61477;SDS011;47345;52.334;10.392;2022-12-18T00:00:49;17.20;;;10.60;;
61477;SDS011;47345;52.334;10.392;2022-12-18T00:03:20;14.30;;;10.40;;
61477;SDS011;47345;52.334;10.392;2022-12-18T00:05:50;16.40;;;9.70;;
61477;SDS011;47345;52.334;10.392;2022-12-18T00:08:22;13.20;;;9.00;;
61477;SDS011;47345;52.334;10.392;2022-12-18T00:10:53;17.10;;;9.90;;
61477;SDS011;47345;52.334;10.392;2022-12-18T00:13:27;15.60;;;9.60;;
61477;SDS011;47345;52.334;10.392;2022-12-18T00:16:00;14.90;;;9.40;;
61477;SDS011;47345;52.334;10.392;2022-12-18T00:18:32;12.40;;;8.50;;
61477;SDS011;47345;52.334;10.392;2022-12-18T00:21:04;13.90;;;9.00;;
61477;SDS011;47345;52.334;10.392;2022-12-18T00:23:36;17.80;;;9.60;;
61477;SDS011;47345;52.334;10.392;2022-12-18T00:26:10;16.30;;;10.10;;
61477;SDS011;47345;52.334;10.392;2022-12-18T00:28:42;12.60;;;8.40;;
61477;SDS011;47345;52.334;10.392;2022-12-18T00:31:14;15.80;;;9.00;;
61477;SDS011;47345;52.334;10.392;2022-12-18T00:33:46;13.20;;;8.80;;
61477;SDS011;47345;52.334;10.392;2022-12-18T00:36:22;13.60;;;8.60;;
61477;SDS011;47345;52.334;10.392;2022-12-18T00:38:55;16.70;;;9.50;;
61477;SDS011;47345;52.334;10.392;2022-12-18T00:41:26;13.90;;;8.30;;
61477;SDS011;47345;52.334;10.392;2022-12-18T00:44:18;10.50;;;7.90;;
61477;SDS011;47345;52.334;10.392;2022-12-18T00:46:48;14.20;;;8.60;;
61477;SDS011;47345;52.334;10.392;2022-12-18T00:49:19;15.10;;;8.40;;
61477;SDS011;47345;52.334;10.392;2022-12-18T00:51:50;15.80;;;9.10;;
61477;SDS011;47345;52.334;10.392;2022-12-18T00:54:24;14.80;;;8.90;;
61477;SDS011;47345;52.334;10.392;2022-12-18T00:56:54;15.30;;;10.20;;
61477;SDS011;47345;52.334;10.392;2022-12-18T00:59:25;16.60;;;9.50;;
61477;SDS011;47345;52.334;10.392;2022-12-18T01:01:56;12.50;;;8.20;;
61477;SDS011;47345;52.334;10.392;2022-12-18T01:04:27;14.70;;;8.30;;
61477;SDS011;47345;52.334;10.392;2022-12-18T01:06:59;15.10;;;9.70;;
61477;SDS011;47345;52.334;10.392;2022-12-18T01:09:30;16.60;;;9.40;;
61477;SDS011;47345;52.334;10.392;2022-12-18T01:12:02;17.10;;;9.90;;
61477;SDS011;47345;52.334;10.392;2022-12-18T01:14:33;16.40;;;9.00;;
61477;SDS011;47345;52.334;10.392;2022-12-18T01:17:05;17.40;;;9.30;;
61477;SDS011;47345;52.334;10.392;2022-12-18T01:19:36;16.20;;;8.40;;
61477;SDS011;47345;52.334;10.392;2022-12-18T01:22:06;10.90;;;7.90;;
61477;SDS011;47345;52.334;10.392;2022-12-18T01:24:37;16.80;;;8.80;;
61477;SDS011;47345;52.334;10.392;2022-12-18T01:27:08;18.60;;;8.80;;
61477;SDS011;47345;52.334;10.392;2022-12-18T01:29:39;16.60;;;8.20;;
61477;SDS011;47345;52.334;10.392;2022-12-18T01:32:09;17.00;;;9.10;;
61477;SDS011;47345;52.334;10.392;2022-12-18T01:34:41;14.10;;;7.90;;
61477;SDS011;47345;52.334;10.392;2022-12-18T01:37:11;11.00;;;7.10;;
61477;SDS011;47345;52.334;10.392;2022-12-18T01:39:42;11.30;;;7.60;;
61477;SDS011;47345;52.334;10.392;2022-12-18T01:42:14;13.40;;;8.10;;
61477;SDS011;47345;52.334;10.392;2022-12-18T01:47:50;11.90;;;7.70;;
61477;SDS011;47345;52.334;10.392;2022-12-18T01:50:24;10.90;;;6.20;;
61477;SDS011;47345;52.334;10.392;2022-12-18T01:52:58;11.60;;;6.30;;
61477;SDS011;47345;52.334;10.392;2022-12-18T01:55:32;14.50;;;8.10;;
61477;SDS011;47345;52.334;10.392;2022-12-18T01:58:07;8.50;;;6.30;;
61477;SDS011;47345;52.334;10.392;2022-12-18T02:00:38;17.50;;;9.30;;
61477;SDS011;47345;52.334;10.392;2022-12-18T02:03:09;16.50;;;8.50;;
61477;SDS011;47345;52.334;10.392;2022-12-18T02:05:43;13.50;;;8.90;;
61477;SDS011;47345;52.334;10.392;2022-12-18T02:08:17;13.00;;;8.70;;
61477;SDS011;47345;52.334;10.392;2022-12-18T02:10:53;16.20;;;9.50;;
61477;SDS011;47345;52.334;10.392;2022-12-18T02:13:35;15.80;;;8.60;;
61477;SDS011;47345;52.334;10.392;2022-12-18T02:16:13;13.00;;;8.40;;
61477;SDS011;47345;52.334;10.392;2022-12-18T02:18:53;13.70;;;9.20;;
61477;SDS011;47345;52.334;10.392;2022-12-18T02:21:31;16.00;;;8.80;;
61477;SDS011;47345;52.334;10.392;2022-12-18T02:24:15;10.20;;;7.30;;
61477;SDS011;47345;52.334;10.392;2022-12-18T02:26:56;11.30;;;7.20;;
61477;SDS011;47345;52.334;10.392;2022-12-18T02:29:31;17.10;;;8.40;;
61477;SDS011;47345;52.334;10.392;2022-12-18T02:32:06;14.30;;;8.30;;
61477;SDS011;47345;52.334;10.392;2022-12-18T02:34:42;12.10;;;7.50;;
61477;SDS011;47345;52.334;10.392;2022-12-18T02:37:15;11.90;;;7.60;;
61477;SDS011;47345;52.334;10.392;2022-12-18T02:39:49;16.10;;;7.90;;
61477;SDS011;47345;52.334;10.392;2022-12-18T02:42:35;10.90;;;7.70;;
61477;SDS011;47345;52.334;10.392;2022-12-18T02:45:08;14.50;;;8.10;;
61477;SDS011;47345;52.334;10.392;2022-12-18T02:47:40;9.50;;;7.10;;
61477;SDS011;47345;52.334;10.392;2022-12-18T02:50:16;13.20;;;7.80;;
61477;SDS011;47345;52.334;10.392;2022-12-18T02:52:55;9.60;;;7.40;;
61477;SDS011;47345;52.334;10.392;2022-12-18T02:55:38;14.80;;;8.70;;
61477;SDS011;47345;52.334;10.392;2022-12-18T02:58:17;14.00;;;8.00;;
61477;SDS011;47345;52.334;10.392;2022-12-18T03:00:53;15.70;;;9.20;;
61477;SDS011;47345;52.334;10.392;2022-12-18T03:03:28;10.60;;;6.80;;
61477;SDS011;47345;52.334;10.392;2022-12-18T03:06:05;12.60;;;7.20;;
61477;SDS011;47345;52.334;10.392;2022-12-18T03:08:43;13.40;;;8.40;;
61477;SDS011;47345;52.334;10.392;2022-12-18T03:11:16;15.60;;;8.80;;
61477;SDS011;47345;52.334;10.392;2022-12-18T03:14:07;13.50;;;8.10;;
61477;SDS011;47345;52.334;10.392;2022-12-18T03:16:39;16.30;;;8.00;;
61477;SDS011;47345;52.334;10.392;2022-12-18T03:19:13;12.60;;;8.60;;
61477;SDS011;47345;52.334;10.392;2022-12-18T03:21:49;15.20;;;8.40;;
61477;SDS011;47345;52.334;10.392;2022-12-18T03:24:22;11.50;;;8.20;;
61477;SDS011;47345;52.334;10.392;2022-12-18T03:26:57;12.40;;;7.90;;
61477;SDS011;47345;52.334;10.392;2022-12-18T03:29:32;13.30;;;9.30;;
61477;SDS011;47345;52.334;10.392;2022-12-18T03:32:07;12.70;;;8.40;;
61477;SDS011;47345;52.334;10.392;2022-12-18T03:34:41;15.10;;;9.30;;
61477;SDS011;47345;52.334;10.392;2022-12-18T03:37:15;21.00;;;10.40;;
61477;SDS011;47345;52.334;10.392;2022-12-18T03:39:46;14.80;;;9.40;;
61477;SDS011;47345;52.334;10.392;2022-12-18T03:42:18;13.30;;;9.70;;
61477;SDS011;47345;52.334;10.392;2022-12-18T03:44:55;13.90;;;8.70;;
61477;SDS011;47345;52.334;10.392;2022-12-18T03:47:32;13.60;;;8.50;;
61477;SDS011;47345;52.334;10.392;2022-12-18T03:50:10;12.80;;;8.60;;
61477;SDS011;47345;52.334;10.392;2022-12-18T03:52:46;13.50;;;9.00;;
61477;SDS011;47345;52.334;10.392;2022-12-18T03:55:23;14.60;;;8.90;;
61477;SDS011;47345;52.334;10.392;2022-12-18T03:57:57;10.60;;;7.50;;
61477;SDS011;47345;52.334;10.392;2022-12-18T04:00:29;15.00;;;7.10;;
61477;SDS011;47345;52.334;10.392;2022-12-18T04:03:00;12.70;;;9.00;;
61477;SDS011;47345;52.334;10.392;2022-12-18T04:05:33;15.50;;;10.60;;
61477;SDS011;47345;52.334;10.392;2022-12-18T04:08:05;19.40;;;9.70;;
61477;SDS011;47345;52.334;10.392;2022-12-18T04:10:36;15.60;;;10.10;;
61477;SDS011;47345;52.334;10.392;2022-12-18T04:13:08;15.60;;;8.30;;
61477;SDS011;47345;52.334;10.392;2022-12-18T04:15:38;13.40;;;10.00;;
61477;SDS011;47345;52.334;10.392;2022-12-18T04:18:10;19.80;;;10.50;;
61477;SDS011;47345;52.334;10.392;2022-12-18T04:20:40;13.40;;;8.50;;
61477;SDS011;47345;52.334;10.392;2022-12-18T04:23:11;14.20;;;9.50;;
61477;SDS011;47345;52.334;10.392;2022-12-18T04:25:41;11.70;;;7.90;;
61477;SDS011;47345;52.334;10.392;2022-12-18T04:28:12;16.20;;;9.60;;
61477;SDS011;47345;52.334;10.392;2022-12-18T04:30:43;12.50;;;8.00;;
61477;SDS011;47345;52.334;10.392;2022-12-18T04:33:17;18.10;;;8.20;;
61477;SDS011;47345;52.334;10.392;2022-12-18T04:35:48;13.90;;;8.80;;
61477;SDS011;47345;52.334;10.392;2022-12-18T04:38:19;18.60;;;9.70;;
61477;SDS011;47345;52.334;10.392;2022-12-18T04:40:50;11.60;;;8.00;;
61477;SDS011;47345;52.334;10.392;2022-12-18T04:43:20;15.30;;;10.00;;
61477;SDS011;47345;52.334;10.392;2022-12-18T04:45:52;14.70;;;9.20;;
61477;SDS011;47345;52.334;10.392;2022-12-18T04:48:22;16.30;;;9.50;;
61477;SDS011;47345;52.334;10.392;2022-12-18T04:50:53;15.00;;;9.00;;
61477;SDS011;47345;52.334;10.392;2022-12-18T04:53:24;11.50;;;7.40;;
61477;SDS011;47345;52.334;10.392;2022-12-18T04:56:03;20.20;;;9.50;;
61477;SDS011;47345;52.334;10.392;2022-12-18T04:58:35;18.30;;;11.10;;
61477;SDS011;47345;52.334;10.392;2022-12-18T05:01:06;24.00;;;10.50;;
61477;SDS011;47345;52.334;10.392;2022-12-18T05:03:39;13.70;;;9.20;;
61477;SDS011;47345;52.334;10.392;2022-12-18T05:06:11;12.30;;;9.30;;
61477;SDS011;47345;52.334;10.392;2022-12-18T05:08:41;16.10;;;9.00;;
61477;SDS011;47345;52.334;10.392;2022-12-18T05:11:13;13.00;;;8.80;;
61477;SDS011;47345;52.334;10.392;2022-12-18T05:13:45;15.80;;;10.00;;
61477;SDS011;47345;52.334;10.392;2022-12-18T05:16:15;17.70;;;11.30;;
61477;SDS011;47345;52.334;10.392;2022-12-18T05:18:46;32.30;;;11.00;;
61477;SDS011;47345;52.334;10.392;2022-12-18T05:21:17;17.60;;;10.30;;
61477;SDS011;47345;52.334;10.392;2022-12-18T05:23:47;12.40;;;8.50;;
61477;SDS011;47345;52.334;10.392;2022-12-18T05:26:18;14.40;;;9.70;;
61477;SDS011;47345;52.334;10.392;2022-12-18T05:28:48;14.30;;;9.00;;
61477;SDS011;47345;52.334;10.392;2022-12-18T05:31:19;19.20;;;9.40;;
61477;SDS011;47345;52.334;10.392;2022-12-18T05:33:50;20.10;;;10.70;;
61477;SDS011;47345;52.334;10.392;2022-12-18T05:36:21;17.70;;;10.10;;
61477;SDS011;47345;52.334;10.392;2022-12-18T05:38:52;15.30;;;9.40;;
61477;SDS011;47345;52.334;10.392;2022-12-18T05:41:23;15.90;;;9.00;;
61477;SDS011;47345;52.334;10.392;2022-12-18T05:43:53;14.00;;;9.70;;
61477;SDS011;47345;52.334;10.392;2022-12-18T05:46:25;13.00;;;8.70;;
61477;SDS011;47345;52.334;10.392;2022-12-18T05:48:58;12.80;;;7.70;;
61477;SDS011;47345;52.334;10.392;2022-12-18T05:51:29;13.40;;;9.70;;
61477;SDS011;47345;52.334;10.392;2022-12-18T05:54:00;10.90;;;8.30;;
61477;SDS011;47345;52.334;10.392;2022-12-18T05:56:32;13.00;;;8.30;;
61477;SDS011;47345;52.334;10.392;2022-12-18T05:59:02;18.00;;;9.00;;
61477;SDS011;47345;52.334;10.392;2022-12-18T06:01:33;15.50;;;9.50;;
61477;SDS011;47345;52.334;10.392;2022-12-18T06:04:05;13.10;;;8.10;;
61477;SDS011;47345;52.334;10.392;2022-12-18T06:06:36;11.30;;;7.20;;
61477;SDS011;47345;52.334;10.392;2022-12-18T06:09:07;14.90;;;8.60;;
61477;SDS011;47345;52.334;10.392;2022-12-18T06:11:38;15.40;;;9.20;;
61477;SDS011;47345;52.334;10.392;2022-12-18T06:14:09;13.90;;;8.40;;
61477;SDS011;47345;52.334;10.392;2022-12-18T06:16:40;14.10;;;8.00;;
61477;SDS011;47345;52.334;10.392;2022-12-18T06:19:14;10.10;;;7.10;;
61477;SDS011;47345;52.334;10.392;2022-12-18T06:21:45;11.60;;;7.60;;
61477;SDS011;47345;52.334;10.392;2022-12-18T06:24:16;15.60;;;8.80;;
61477;SDS011;47345;52.334;10.392;2022-12-18T06:26:47;15.40;;;9.10;;
61477;SDS011;47345;52.334;10.392;2022-12-18T06:29:17;14.70;;;8.90;;
61477;SDS011;47345;52.334;10.392;2022-12-18T06:31:48;12.60;;;8.50;;
61477;SDS011;47345;52.334;10.392;2022-12-18T06:34:19;13.70;;;7.80;;
61477;SDS011;47345;52.334;10.392;2022-12-18T06:36:50;12.90;;;8.70;;
61477;SDS011;47345;52.334;10.392;2022-12-18T06:39:20;12.90;;;7.60;;
61477;SDS011;47345;52.334;10.392;2022-12-18T06:41:52;12.60;;;8.50;;
61477;SDS011;47345;52.334;10.392;2022-12-18T06:44:23;14.50;;;7.50;;
61477;SDS011;47345;52.334;10.392;2022-12-18T06:46:54;12.90;;;8.30;;
61477;SDS011;47345;52.334;10.392;2022-12-18T06:49:25;15.60;;;9.60;;
61477;SDS011;47345;52.334;10.392;2022-12-18T06:51:57;11.50;;;7.30;;
61477;SDS011;47345;52.334;10.392;2022-12-18T06:54:28;13.90;;;8.50;;
61477;SDS011;47345;52.334;10.392;2022-12-18T06:56:58;13.30;;;8.70;;
61477;SDS011;47345;52.334;10.392;2022-12-18T06:59:29;15.30;;;9.40;;
61477;SDS011;47345;52.334;10.392;2022-12-18T07:02:00;14.30;;;9.70;;
61477;SDS011;47345;52.334;10.392;2022-12-18T07:04:31;15.70;;;9.40;;
61477;SDS011;47345;52.334;10.392;2022-12-18T07:07:02;14.60;;;9.50;;
61477;SDS011;47345;52.334;10.392;2022-12-18T07:09:33;15.30;;;10.10;;
61477;SDS011;47345;52.334;10.392;2022-12-18T07:12:04;16.30;;;10.30;;
61477;SDS011;47345;52.334;10.392;2022-12-18T07:14:35;19.90;;;9.70;;
61477;SDS011;47345;52.334;10.392;2022-12-18T07:17:06;14.80;;;9.10;;
61477;SDS011;47345;52.334;10.392;2022-12-18T07:19:37;12.40;;;8.50;;
61477;SDS011;47345;52.334;10.392;2022-12-18T07:22:08;16.30;;;9.40;;
61477;SDS011;47345;52.334;10.392;2022-12-18T07:24:39;22.20;;;8.70;;
61477;SDS011;47345;52.334;10.392;2022-12-18T07:27:09;19.60;;;9.50;;
61477;SDS011;47345;52.334;10.392;2022-12-18T07:29:40;10.30;;;8.30;;
61477;SDS011;47345;52.334;10.392;2022-12-18T07:32:11;11.60;;;8.10;;
61477;SDS011;47345;52.334;10.392;2022-12-18T07:34:41;19.00;;;10.10;;
61477;SDS011;47345;52.334;10.392;2022-12-18T07:37:14;22.40;;;10.80;;
61477;SDS011;47345;52.334;10.392;2022-12-18T07:39:45;17.40;;;9.60;;
61477;SDS011;47345;52.334;10.392;2022-12-18T07:42:17;12.10;;;8.20;;
61477;SDS011;47345;52.334;10.392;2022-12-18T07:45:00;15.30;;;8.90;;
61477;SDS011;47345;52.334;10.392;2022-12-18T07:47:33;16.50;;;8.90;;
61477;SDS011;47345;52.334;10.392;2022-12-18T07:50:05;14.30;;;9.60;;
61477;SDS011;47345;52.334;10.392;2022-12-18T07:52:37;17.50;;;10.10;;
61477;SDS011;47345;52.334;10.392;2022-12-18T07:55:08;13.20;;;9.10;;
61477;SDS011;47345;52.334;10.392;2022-12-18T07:57:38;22.10;;;11.30;;
61477;SDS011;47345;52.334;10.392;2022-12-18T08:00:18;13.00;;;8.10;;
61477;SDS011;47345;52.334;10.392;2022-12-18T08:02:49;11.40;;;8.30;;
61477;SDS011;47345;52.334;10.392;2022-12-18T08:05:21;14.40;;;9.20;;
61477;SDS011;47345;52.334;10.392;2022-12-18T08:07:53;15.40;;;9.70;;
61477;SDS011;47345;52.334;10.392;2022-12-18T08:10:24;18.50;;;11.10;;
61477;SDS011;47345;52.334;10.392;2022-12-18T08:12:54;22.60;;;10.90;;
61477;SDS011;47345;52.334;10.392;2022-12-18T08:15:31;18.80;;;10.60;;
61477;SDS011;47345;52.334;10.392;2022-12-18T08:18:03;16.90;;;11.70;;
61477;SDS011;47345;52.334;10.392;2022-12-18T08:23:10;20.00;;;10.40;;
61477;SDS011;47345;52.334;10.392;2022-12-18T08:25:40;18.60;;;10.70;;
61477;SDS011;47345;52.334;10.392;2022-12-18T08:28:11;19.80;;;10.60;;
61477;SDS011;47345;52.334;10.392;2022-12-18T08:30:43;20.30;;;10.10;;
61477;SDS011;47345;52.334;10.392;2022-12-18T08:33:15;32.40;;;10.50;;
61477;SDS011;47345;52.334;10.392;2022-12-18T08:35:48;17.30;;;9.60;;
61477;SDS011;47345;52.334;10.392;2022-12-18T08:38:23;16.00;;;10.90;;
61477;SDS011;47345;52.334;10.392;2022-12-18T08:40:59;19.30;;;11.20;;
61477;SDS011;47345;52.334;10.392;2022-12-18T08:43:32;22.70;;;11.10;;
61477;SDS011;47345;52.334;10.392;2022-12-18T08:46:25;15.70;;;9.60;;
61477;SDS011;47345;52.334;10.392;2022-12-18T08:49:02;17.90;;;9.40;;
61477;SDS011;47345;52.334;10.392;2022-12-18T08:51:37;13.20;;;8.50;;
61477;SDS011;47345;52.334;10.392;2022-12-18T08:54:08;19.30;;;9.40;;
61477;SDS011;47345;52.334;10.392;2022-12-18T08:56:41;13.70;;;9.10;;
61477;SDS011;47345;52.334;10.392;2022-12-18T08:59:12;23.10;;;9.50;;
61477;SDS011;47345;52.334;10.392;2022-12-18T09:01:46;19.00;;;10.00;;
61477;SDS011;47345;52.334;10.392;2022-12-18T09:04:17;22.40;;;9.70;;
61477;SDS011;47345;52.334;10.392;2022-12-18T09:06:49;15.10;;;9.40;;
61477;SDS011;47345;52.334;10.392;2022-12-18T09:09:19;16.80;;;10.20;;
61477;SDS011;47345;52.334;10.392;2022-12-18T09:11:50;14.70;;;8.90;;
61477;SDS011;47345;52.334;10.392;2022-12-18T09:14:20;14.50;;;8.90;;
61477;SDS011;47345;52.334;10.392;2022-12-18T09:16:51;17.10;;;10.70;;
61477;SDS011;47345;52.334;10.392;2022-12-18T09:19:22;15.00;;;9.20;;
61477;SDS011;47345;52.334;10.392;2022-12-18T09:21:53;16.00;;;8.90;;
61477;SDS011;47345;52.334;10.392;2022-12-18T09:24:24;17.30;;;9.60;;
61477;SDS011;47345;52.334;10.392;2022-12-18T09:26:55;15.90;;;8.80;;
61477;SDS011;47345;52.334;10.392;2022-12-18T09:29:26;14.30;;;8.90;;
61477;SDS011;47345;52.334;10.392;2022-12-18T09:31:57;19.40;;;9.70;;
61477;SDS011;47345;52.334;10.392;2022-12-18T09:34:28;16.90;;;9.70;;
61477;SDS011;47345;52.334;10.392;2022-12-18T09:36:59;11.10;;;7.80;;
61477;SDS011;47345;52.334;10.392;2022-12-18T09:39:30;14.60;;;9.30;;
61477;SDS011;47345;52.334;10.392;2022-12-18T09:42:01;14.40;;;8.50;;
61477;SDS011;47345;52.334;10.392;2022-12-18T09:44:32;20.30;;;9.30;;
61477;SDS011;47345;52.334;10.392;2022-12-18T09:47:13;18.00;;;9.90;;
61477;SDS011;47345;52.334;10.392;2022-12-18T09:49:48;12.70;;;8.80;;
61477;SDS011;47345;52.334;10.392;2022-12-18T09:52:23;17.30;;;8.70;;
61477;SDS011;47345;52.334;10.392;2022-12-18T09:55:00;17.50;;;9.20;;
61477;SDS011;47345;52.334;10.392;2022-12-18T09:57:35;13.80;;;8.90;;
61477;SDS011;47345;52.334;10.392;2022-12-18T10:00:13;14.20;;;8.30;;
61477;SDS011;47345;52.334;10.392;2022-12-18T10:02:48;10.80;;;7.50;;
61477;SDS011;47345;52.334;10.392;2022-12-18T10:05:26;16.40;;;8.90;;
61477;SDS011;47345;52.334;10.392;2022-12-18T10:08:07;11.50;;;8.10;;
61477;SDS011;47345;52.334;10.392;2022-12-18T10:10:43;12.70;;;7.60;;
61477;SDS011;47345;52.334;10.392;2022-12-18T10:13:24;13.40;;;7.50;;
61477;SDS011;47345;52.334;10.392;2022-12-18T10:16:03;18.30;;;7.80;;
61477;SDS011;47345;52.334;10.392;2022-12-18T10:18:56;14.30;;;7.20;;
61477;SDS011;47345;52.334;10.392;2022-12-18T10:21:40;15.50;;;7.80;;
61477;SDS011;47345;52.334;10.392;2022-12-18T10:24:20;13.50;;;8.10;;
61477;SDS011;47345;52.334;10.392;2022-12-18T10:26:56;17.30;;;9.80;;
61477;SDS011;47345;52.334;10.392;2022-12-18T10:29:38;13.60;;;8.30;;
61477;SDS011;47345;52.334;10.392;2022-12-18T10:32:10;11.50;;;7.40;;
61477;SDS011;47345;52.334;10.392;2022-12-18T10:34:48;16.10;;;9.20;;
61477;SDS011;47345;52.334;10.392;2022-12-18T10:37:28;12.70;;;7.70;;
61477;SDS011;47345;52.334;10.392;2022-12-18T10:40:10;11.00;;;7.00;;
61477;SDS011;47345;52.334;10.392;2022-12-18T10:42:49;15.90;;;7.60;;
61477;SDS011;47345;52.334;10.392;2022-12-18T10:45:34;10.00;;;7.60;;
61477;SDS011;47345;52.334;10.392;2022-12-18T10:48:05;12.30;;;7.60;;
61477;SDS011;47345;52.334;10.392;2022-12-18T10:50:49;13.30;;;8.00;;
61477;SDS011;47345;52.334;10.392;2022-12-18T10:53:40;10.30;;;6.60;;
61477;SDS011;47345;52.334;10.392;2022-12-18T10:56:20;12.10;;;7.90;;
61477;SDS011;47345;52.334;10.392;2022-12-18T10:58:56;11.90;;;7.20;;
61477;SDS011;47345;52.334;10.392;2022-12-18T11:04:15;10.30;;;7.00;;
61477;SDS011;47345;52.334;10.392;2022-12-18T11:06:55;10.00;;;7.10;;
61477;SDS011;47345;52.334;10.392;2022-12-18T11:09:28;13.40;;;8.30;;
61477;SDS011;47345;52.334;10.392;2022-12-18T11:12:00;11.00;;;7.40;;
61477;SDS011;47345;52.334;10.392;2022-12-18T11:14:34;16.60;;;9.00;;
61477;SDS011;47345;52.334;10.392;2022-12-18T11:17:19;14.80;;;8.60;;
61477;SDS011;47345;52.334;10.392;2022-12-18T11:19:54;19.10;;;8.20;;
61477;SDS011;47345;52.334;10.392;2022-12-18T11:22:27;14.90;;;9.90;;
61477;SDS011;47345;52.334;10.392;2022-12-18T11:24:59;12.40;;;9.10;;
61477;SDS011;47345;52.334;10.392;2022-12-18T11:27:54;13.10;;;7.90;;
61477;SDS011;47345;52.334;10.392;2022-12-18T11:30:28;13.60;;;9.00;;
61477;SDS011;47345;52.334;10.392;2022-12-18T11:33:00;11.60;;;7.90;;
61477;SDS011;47345;52.334;10.392;2022-12-18T11:35:42;13.50;;;7.80;;
61477;SDS011;47345;52.334;10.392;2022-12-18T11:38:22;12.50;;;7.40;;
61477;SDS011;47345;52.334;10.392;2022-12-18T11:40:55;12.30;;;8.10;;
61477;SDS011;47345;52.334;10.392;2022-12-18T11:43:29;13.30;;;7.10;;
61477;SDS011;47345;52.334;10.392;2022-12-18T11:46:05;13.50;;;7.80;;
61477;SDS011;47345;52.334;10.392;2022-12-18T11:48:47;10.60;;;7.30;;
61477;SDS011;47345;52.334;10.392;2022-12-18T11:51:26;11.30;;;7.70;;
61477;SDS011;47345;52.334;10.392;2022-12-18T11:54:01;14.50;;;7.90;;
61477;SDS011;47345;52.334;10.392;2022-12-18T11:56:42;12.80;;;8.10;;
61477;SDS011;47345;52.334;10.392;2022-12-18T11:59:18;13.90;;;8.50;;
61477;SDS011;47345;52.334;10.392;2022-12-18T12:01:58;16.40;;;10.00;;
61477;SDS011;47345;52.334;10.392;2022-12-18T12:04:45;16.40;;;9.70;;
61477;SDS011;47345;52.334;10.392;2022-12-18T12:07:26;13.40;;;8.00;;
61477;SDS011;47345;52.334;10.392;2022-12-18T12:10:08;10.10;;;7.20;;
61477;SDS011;47345;52.334;10.392;2022-12-18T12:12:55;12.40;;;8.10;;
61477;SDS011;47345;52.334;10.392;2022-12-18T12:15:44;11.30;;;8.10;;
61477;SDS011;47345;52.334;10.392;2022-12-18T12:18:28;20.40;;;9.30;;
61477;SDS011;47345;52.334;10.392;2022-12-18T12:21:11;10.70;;;7.70;;
61477;SDS011;47345;52.334;10.392;2022-12-18T12:23:48;12.00;;;7.60;;
61477;SDS011;47345;52.334;10.392;2022-12-18T12:26:29;14.30;;;7.90;;
61477;SDS011;47345;52.334;10.392;2022-12-18T12:29:13;11.80;;;8.10;;
61477;SDS011;47345;52.334;10.392;2022-12-18T12:32:00;14.10;;;9.40;;
61477;SDS011;47345;52.334;10.392;2022-12-18T12:34:46;15.30;;;8.90;;
61477;SDS011;47345;52.334;10.392;2022-12-18T12:37:34;12.70;;;8.30;;
61477;SDS011;47345;52.334;10.392;2022-12-18T12:40:14;13.70;;;8.00;;
61477;SDS011;47345;52.334;10.392;2022-12-18T12:43:15;19.60;;;9.30;;
61477;SDS011;47345;52.334;10.392;2022-12-18T12:45:52;14.40;;;9.10;;
61477;SDS011;47345;52.334;10.392;2022-12-18T12:48:42;14.60;;;9.30;;
61477;SDS011;47345;52.334;10.392;2022-12-18T12:51:17;15.70;;;9.70;;
61477;SDS011;47345;52.334;10.392;2022-12-18T12:53:49;15.20;;;9.20;;
61477;SDS011;47345;52.334;10.392;2022-12-18T12:56:21;16.30;;;9.10;;
61477;SDS011;47345;52.334;10.392;2022-12-18T12:58:58;13.60;;;8.00;;
61477;SDS011;47345;52.334;10.392;2022-12-18T13:01:40;14.30;;;8.50;;
61477;SDS011;47345;52.334;10.392;2022-12-18T13:04:20;16.20;;;8.90;;
61477;SDS011;47345;52.334;10.392;2022-12-18T13:06:56;22.10;;;12.00;;
61477;SDS011;47345;52.334;10.392;2022-12-18T13:09:31;13.90;;;8.90;;
61477;SDS011;47345;52.334;10.392;2022-12-18T13:17:44;12.10;;;8.20;;
61477;SDS011;47345;52.334;10.392;2022-12-18T13:20:15;12.90;;;7.50;;
61477;SDS011;47345;52.334;10.392;2022-12-18T13:22:47;11.50;;;7.70;;
61477;SDS011;47345;52.334;10.392;2022-12-18T13:25:29;16.90;;;10.20;;
61477;SDS011;47345;52.334;10.392;2022-12-18T13:28:06;15.10;;;9.20;;
61477;SDS011;47345;52.334;10.392;2022-12-18T13:30:48;20.60;;;11.50;;
61477;SDS011;47345;52.334;10.392;2022-12-18T13:33:37;14.80;;;8.60;;
61477;SDS011;47345;52.334;10.392;2022-12-18T13:36:32;14.20;;;8.10;;
61477;SDS011;47345;52.334;10.392;2022-12-18T13:45:40;13.10;;;7.10;;
61477;SDS011;47345;52.334;10.392;2022-12-18T13:48:18;12.30;;;7.50;;
61477;SDS011;47345;52.334;10.392;2022-12-18T13:50:59;13.70;;;7.90;;
61477;SDS011;47345;52.334;10.392;2022-12-18T13:53:38;13.00;;;8.00;;
61477;SDS011;47345;52.334;10.392;2022-12-18T13:56:16;14.90;;;8.00;;
61477;SDS011;47345;52.334;10.392;2022-12-18T13:58:47;13.00;;;8.00;;
61477;SDS011;47345;52.334;10.392;2022-12-18T14:01:34;13.90;;;8.60;;
61477;SDS011;47345;52.334;10.392;2022-12-18T14:04:12;13.90;;;10.00;;
61477;SDS011;47345;52.334;10.392;2022-12-18T14:06:50;13.70;;;9.30;;
61477;SDS011;47345;52.334;10.392;2022-12-18T14:09:26;13.30;;;8.20;;
61477;SDS011;47345;52.334;10.392;2022-12-18T14:11:59;15.20;;;9.20;;
61477;SDS011;47345;52.334;10.392;2022-12-18T14:14:48;13.70;;;8.70;;
61477;SDS011;47345;52.334;10.392;2022-12-18T14:17:22;11.60;;;6.90;;
61477;SDS011;47345;52.334;10.392;2022-12-18T14:19:53;12.50;;;6.60;;
61477;SDS011;47345;52.334;10.392;2022-12-18T14:22:24;12.90;;;7.00;;
61477;SDS011;47345;52.334;10.392;2022-12-18T14:25:13;15.60;;;6.90;;
61477;SDS011;47345;52.334;10.392;2022-12-18T14:27:46;9.00;;;6.50;;
61477;SDS011;47345;52.334;10.392;2022-12-18T14:30:25;9.60;;;6.50;;
61477;SDS011;47345;52.334;10.392;2022-12-18T14:33:05;11.10;;;6.20;;
61477;SDS011;47345;52.334;10.392;2022-12-18T14:35:38;12.50;;;6.40;;
61477;SDS011;47345;52.334;10.392;2022-12-18T14:38:15;13.10;;;5.90;;
61477;SDS011;47345;52.334;10.392;2022-12-18T14:40:55;8.80;;;6.20;;
61477;SDS011;47345;52.334;10.392;2022-12-18T14:43:31;12.00;;;6.80;;
61477;SDS011;47345;52.334;10.392;2022-12-18T14:46:04;10.30;;;7.30;;
61477;SDS011;47345;52.334;10.392;2022-12-18T14:48:54;10.00;;;6.70;;
61477;SDS011;47345;52.334;10.392;2022-12-18T14:51:26;12.30;;;8.00;;
61477;SDS011;47345;52.334;10.392;2022-12-18T14:53:58;12.50;;;8.00;;
61477;SDS011;47345;52.334;10.392;2022-12-18T14:56:31;15.40;;;8.70;;
61477;SDS011;47345;52.334;10.392;2022-12-18T14:59:04;15.60;;;7.70;;
61477;SDS011;47345;52.334;10.392;2022-12-18T15:01:50;10.00;;;6.90;;
61477;SDS011;47345;52.334;10.392;2022-12-18T15:04:34;10.90;;;6.70;;
61477;SDS011;47345;52.334;10.392;2022-12-18T15:07:09;8.60;;;6.50;;
61477;SDS011;47345;52.334;10.392;2022-12-18T15:09:44;10.50;;;6.20;;
61477;SDS011;47345;52.334;10.392;2022-12-18T15:12:38;10.00;;;6.10;;
61477;SDS011;47345;52.334;10.392;2022-12-18T15:18:17;12.50;;;6.50;;
61477;SDS011;47345;52.334;10.392;2022-12-18T15:20:50;9.70;;;6.30;;
61477;SDS011;47345;52.334;10.392;2022-12-18T15:23:24;10.40;;;6.60;;
61477;SDS011;47345;52.334;10.392;2022-12-18T15:25:58;13.50;;;6.30;;
61477;SDS011;47345;52.334;10.392;2022-12-18T15:28:30;10.60;;;6.20;;